sensor_id;sensor_type;location;lat;lon;timestamp;temperature;humidity
20315;DHT22;10315;50.958;13.080;2022-11-20T00:05:26;-6.30;99.90
20315;DHT22;10315;50.958;13.080;2022-11-20T00:15:29;-6.50;99.90
20315;DHT22;10315;50.958;13.080;2022-11-20T00:25:31;-6.60;99.90
20315;DHT22;10315;50.958;13.080;2022-11-20T00:35:34;-6.60;99.90
20315;DHT22;10315;50.958;13.080;2022-11-20T00:45:35;-6.70;99.90
20315;DHT22;10315;50.958;13.080;2022-11-20T00:55:52;-6.80;99.90
20315;DHT22;10315;50.958;13.080;2022-11-20T01:05:56;-6.70;99.90
20315;DHT22;10315;50.958;13.080;2022-11-20T01:16:04;-6.80;99.90
20315;DHT22;10315;50.958;13.080;2022-11-20T01:26:10;-6.90;99.90
20315;DHT22;10315;50.958;13.080;2022-11-20T01:36:23;-7.00;99.90
20315;DHT22;10315;50.958;13.080;2022-11-20T01:46:25;-7.10;99.90
20315;DHT22;10315;50.958;13.080;2022-11-20T01:56:30;-7.10;99.90
20315;DHT22;10315;50.958;13.080;2022-11-20T02:06:36;-7.00;99.90
20315;DHT22;10315;50.958;13.080;2022-11-20T02:16:46;-7.00;99.90
20315;DHT22;10315;50.958;13.080;2022-11-20T02:26:53;-7.10;99.90
20315;DHT22;10315;50.958;13.080;2022-11-20T02:36:56;-7.10;99.90
20315;DHT22;10315;50.958;13.080;2022-11-20T02:47:00;-7.10;99.90
20315;DHT22;10315;50.958;13.080;2022-11-20T02:57:02;-7.20;99.90
20315;DHT22;10315;50.958;13.080;2022-11-20T03:07:12;-7.30;99.90
20315;DHT22;10315;50.958;13.080;2022-11-20T03:17:15;-7.40;99.90
20315;DHT22;10315;50.958;13.080;2022-11-20T03:27:19;-7.40;99.90
20315;DHT22;10315;50.958;13.080;2022-11-20T03:37:23;-7.60;99.90
20315;DHT22;10315;50.958;13.080;2022-11-20T03:47:27;-7.50;99.90
20315;DHT22;10315;50.958;13.080;2022-11-20T03:57:29;-7.20;99.90
20315;DHT22;10315;50.958;13.080;2022-11-20T04:07:33;-7.20;99.90
20315;DHT22;10315;50.958;13.080;2022-11-20T04:17:38;-7.20;99.90
20315;DHT22;10315;50.958;13.080;2022-11-20T04:27:41;-7.30;99.90
20315;DHT22;10315;50.958;13.080;2022-11-20T04:37:43;-7.50;99.90
20315;DHT22;10315;50.958;13.080;2022-11-20T04:47:47;-7.60;99.90
20315;DHT22;10315;50.958;13.080;2022-11-20T04:57:50;-7.70;99.90
20315;DHT22;10315;50.958;13.080;2022-11-20T05:07:53;-7.80;99.90
20315;DHT22;10315;50.958;13.080;2022-11-20T05:17:56;-7.70;99.90
20315;DHT22;10315;50.958;13.080;2022-11-20T05:28:00;-7.70;99.90
20315;DHT22;10315;50.958;13.080;2022-11-20T05:38:01;-7.70;99.90
20315;DHT22;10315;50.958;13.080;2022-11-20T05:48:05;-7.70;99.90
20315;DHT22;10315;50.958;13.080;2022-11-20T05:58:06;-7.60;99.90
20315;DHT22;10315;50.958;13.080;2022-11-20T06:08:09;-7.80;99.90
20315;DHT22;10315;50.958;13.080;2022-11-20T06:18:11;-7.80;99.90
20315;DHT22;10315;50.958;13.080;2022-11-20T06:28:16;-7.90;99.90
20315;DHT22;10315;50.958;13.080;2022-11-20T06:38:18;-7.90;99.90
20315;DHT22;10315;50.958;13.080;2022-11-20T06:48:21;-7.80;99.90
20315;DHT22;10315;50.958;13.080;2022-11-20T06:58:26;-8.00;99.90
20315;DHT22;10315;50.958;13.080;2022-11-20T07:08:30;-7.70;99.90
20315;DHT22;10315;50.958;13.080;2022-11-20T07:18:32;-7.40;99.90
20315;DHT22;10315;50.958;13.080;2022-11-20T07:28:36;-7.20;99.90
20315;DHT22;10315;50.958;13.080;2022-11-20T07:38:38;-6.60;99.90
20315;DHT22;10315;50.958;13.080;2022-11-20T07:48:41;-5.90;99.90
20315;DHT22;10315;50.958;13.080;2022-11-20T07:58:42;-5.10;99.90
20315;DHT22;10315;50.958;13.080;2022-11-20T08:08:45;-4.60;99.90
20315;DHT22;10315;50.958;13.080;2022-11-20T08:18:48;-3.90;99.90
20315;DHT22;10315;50.958;13.080;2022-11-20T08:28:57;-3.30;99.90
20315;DHT22;10315;50.958;13.080;2022-11-20T08:39:00;-3.00;99.90
20315;DHT22;10315;50.958;13.080;2022-11-20T08:49:03;-2.90;99.90
20315;DHT22;10315;50.958;13.080;2022-11-20T08:59:07;-2.60;99.90
20315;DHT22;10315;50.958;13.080;2022-11-20T09:09:10;-2.40;99.90
20315;DHT22;10315;50.958;13.080;2022-11-20T09:19:11;-1.60;99.90
20315;DHT22;10315;50.958;13.080;2022-11-20T09:29:14;-1.50;99.90
20315;DHT22;10315;50.958;13.080;2022-11-20T09:39:16;-1.40;99.90
20315;DHT22;10315;50.958;13.080;2022-11-20T09:49:25;-1.20;99.90
20315;DHT22;10315;50.958;13.080;2022-11-20T09:59:37;-0.40;99.90
20315;DHT22;10315;50.958;13.080;2022-11-20T10:09:47;-0.90;99.90
20315;DHT22;10315;50.958;13.080;2022-11-20T10:20:02;-1.40;99.90
20315;DHT22;10315;50.958;13.080;2022-11-20T10:30:10;-1.20;99.90
20315;DHT22;10315;50.958;13.080;2022-11-20T10:40:21;-0.80;99.90
20315;DHT22;10315;50.958;13.080;2022-11-20T10:50:28;-0.70;99.90
20315;DHT22;10315;50.958;13.080;2022-11-20T11:00:31;0.00;99.90
20315;DHT22;10315;50.958;13.080;2022-11-20T11:10:39;0.00;99.90
20315;DHT22;10315;50.958;13.080;2022-11-20T11:20:50;-0.50;99.90
20315;DHT22;10315;50.958;13.080;2022-11-20T11:30:54;-0.90;99.90
20315;DHT22;10315;50.958;13.080;2022-11-20T11:40:56;-0.90;99.90
20315;DHT22;10315;50.958;13.080;2022-11-20T11:51:00;-0.90;99.90
20315;DHT22;10315;50.958;13.080;2022-11-20T12:01:07;-0.60;99.90
20315;DHT22;10315;50.958;13.080;2022-11-20T12:11:29;-1.00;99.90
20315;DHT22;10315;50.958;13.080;2022-11-20T12:21:39;-0.90;99.90
20315;DHT22;10315;50.958;13.080;2022-11-20T12:31:59;-1.20;99.90
20315;DHT22;10315;50.958;13.080;2022-11-20T12:42:31;-0.80;99.90
20315;DHT22;10315;50.958;13.080;2022-11-20T12:52:56;-0.60;99.90
20315;DHT22;10315;50.958;13.080;2022-11-20T13:03:23;-0.40;99.90
20315;DHT22;10315;50.958;13.080;2022-11-20T13:13:39;-0.50;99.90
20315;DHT22;10315;50.958;13.080;2022-11-20T13:23:42;-0.40;99.90
20315;DHT22;10315;50.958;13.080;2022-11-20T13:33:45;-0.50;99.90
20315;DHT22;10315;50.958;13.080;2022-11-20T13:43:52;-0.40;99.90
20315;DHT22;10315;50.958;13.080;2022-11-20T13:54:09;-0.50;99.90
20315;DHT22;10315;50.958;13.080;2022-11-20T14:04:19;-0.50;99.90
20315;DHT22;10315;50.958;13.080;2022-11-20T14:14:25;-0.50;99.90
20315;DHT22;10315;50.958;13.080;2022-11-20T14:24:27;-0.60;99.90
20315;DHT22;10315;50.958;13.080;2022-11-20T14:34:38;-0.60;99.90
20315;DHT22;10315;50.958;13.080;2022-11-20T14:44:41;-0.90;99.90
20315;DHT22;10315;50.958;13.080;2022-11-20T14:54:45;-1.30;99.90
20315;DHT22;10315;50.958;13.080;2022-11-20T15:04:48;-1.60;99.90
20315;DHT22;10315;50.958;13.080;2022-11-20T15:14:52;-1.90;99.90
20315;DHT22;10315;50.958;13.080;2022-11-20T15:24:53;-2.20;99.90
20315;DHT22;10315;50.958;13.080;2022-11-20T15:34:57;-2.30;99.90
20315;DHT22;10315;50.958;13.080;2022-11-20T15:44:58;-2.50;99.90
20315;DHT22;10315;50.958;13.080;2022-11-20T15:55:04;-2.70;99.90
20315;DHT22;10315;50.958;13.080;2022-11-20T16:05:11;-3.00;99.90
20315;DHT22;10315;50.958;13.080;2022-11-20T16:15:14;-3.00;99.90
20315;DHT22;10315;50.958;13.080;2022-11-20T16:25:42;-2.90;99.90
20315;DHT22;10315;50.958;13.080;2022-11-20T16:35:45;-2.90;99.90
20315;DHT22;10315;50.958;13.080;2022-11-20T16:45:47;-3.10;99.90
20315;DHT22;10315;50.958;13.080;2022-11-20T16:55:50;-3.10;99.90
20315;DHT22;10315;50.958;13.080;2022-11-20T17:05:52;-3.20;99.90
20315;DHT22;10315;50.958;13.080;2022-11-20T17:16:00;-3.30;99.90
20315;DHT22;10315;50.958;13.080;2022-11-20T17:26:03;-3.40;99.90
20315;DHT22;10315;50.958;13.080;2022-11-20T17:36:10;-3.40;99.90
20315;DHT22;10315;50.958;13.080;2022-11-20T17:46:13;-3.30;99.90
20315;DHT22;10315;50.958;13.080;2022-11-20T17:56:17;-3.20;99.90
20315;DHT22;10315;50.958;13.080;2022-11-20T18:06:37;-3.30;99.90
20315;DHT22;10315;50.958;13.080;2022-11-20T18:16:41;-3.40;99.90
20315;DHT22;10315;50.958;13.080;2022-11-20T18:26:43;-3.40;99.90
20315;DHT22;10315;50.958;13.080;2022-11-20T18:36:46;-3.40;99.90
20315;DHT22;10315;50.958;13.080;2022-11-20T18:46:48;-3.50;99.90
20315;DHT22;10315;50.958;13.080;2022-11-20T18:56:51;-3.50;99.90
20315;DHT22;10315;50.958;13.080;2022-11-20T19:06:53;-3.60;99.90
20315;DHT22;10315;50.958;13.080;2022-11-20T19:16:57;-3.50;99.90
20315;DHT22;10315;50.958;13.080;2022-11-20T19:26:58;-3.50;99.90
20315;DHT22;10315;50.958;13.080;2022-11-20T19:37:02;-3.30;99.90
20315;DHT22;10315;50.958;13.080;2022-11-20T19:47:04;-3.00;99.90
20315;DHT22;10315;50.958;13.080;2022-11-20T19:57:12;-2.90;99.90
20315;DHT22;10315;50.958;13.080;2022-11-20T20:07:14;-3.00;99.90
20315;DHT22;10315;50.958;13.080;2022-11-20T20:17:17;-2.80;99.90
20315;DHT22;10315;50.958;13.080;2022-11-20T20:27:19;-2.60;99.90
20315;DHT22;10315;50.958;13.080;2022-11-20T20:37:22;-2.60;99.90
20315;DHT22;10315;50.958;13.080;2022-11-20T20:47:29;-2.40;99.90
20315;DHT22;10315;50.958;13.080;2022-11-20T20:57:32;-2.50;99.90
20315;DHT22;10315;50.958;13.080;2022-11-20T21:07:34;-2.10;99.90
20315;DHT22;10315;50.958;13.080;2022-11-20T21:17:57;-1.70;99.90
20315;DHT22;10315;50.958;13.080;2022-11-20T21:27:58;-1.50;99.90
20315;DHT22;10315;50.958;13.080;2022-11-20T21:38:01;-1.50;99.90
20315;DHT22;10315;50.958;13.080;2022-11-20T21:48:04;-1.30;99.90
20315;DHT22;10315;50.958;13.080;2022-11-20T21:58:10;-1.50;99.90
20315;DHT22;10315;50.958;13.080;2022-11-20T22:08:11;-1.50;99.90
20315;DHT22;10315;50.958;13.080;2022-11-20T22:18:15;-1.50;99.90
20315;DHT22;10315;50.958;13.080;2022-11-20T22:28:17;-1.30;99.90
20315;DHT22;10315;50.958;13.080;2022-11-20T22:38:24;-1.40;99.90
20315;DHT22;10315;50.958;13.080;2022-11-20T22:48:25;-1.40;99.90
20315;DHT22;10315;50.958;13.080;2022-11-20T22:58:30;-1.40;99.90
20315;DHT22;10315;50.958;13.080;2022-11-20T23:08:32;-1.30;99.90
20315;DHT22;10315;50.958;13.080;2022-11-20T23:18:36;-1.20;99.90
20315;DHT22;10315;50.958;13.080;2022-11-20T23:28:38;-1.10;99.90
20315;DHT22;10315;50.958;13.080;2022-11-20T23:38:41;-0.90;99.90
20315;DHT22;10315;50.958;13.080;2022-11-20T23:48:44;-0.90;99.90
20315;DHT22;10315;50.958;13.080;2022-11-20T23:58:47;-0.80;99.90
